Time;durP1;ratioP1;P1;durP2;ratioP2;P2;SDS_P1;SDS_P2;PMS_P1;PMS_P2;Temp;Humidity;BMP_temperature;BMP_pressure;BME280_temperature;BME280_humidity;BME280_pressure;Samples;Min_cycle;Max_cycle;Signal;HPM_P1;HPM_P2
2021/06/05 00:02:30;;;;;;;7.38;6.68;;;18.50;99.90;;;;;;5072395;28;20295;-69
2021/06/05 00:04:59;;;;;;;7.28;6.63;;;18.50;99.90;;;;;;5072407;28;20221;-70
2021/06/05 00:07:27;;;;;;;8.05;7.35;;;18.40;99.90;;;;;;5072792;28;20259;-70
2021/06/05 00:09:55;;;;;;;7.15;6.55;;;18.50;99.90;;;;;;5072859;28;20231;-69
2021/06/05 00:12:25;;;;;;;7.75;6.95;;;18.50;99.90;;;;;;5072622;28;20649;-69
2021/06/05 00:14:52;;;;;;;7.22;6.53;;;18.60;99.90;;;;;;5089418;28;20574;-70
2021/06/05 00:17:20;;;;;;;6.53;6.00;;;18.80;99.90;;;;;;5092759;28;20294;-69
2021/06/05 00:19:49;;;;;;;7.25;6.55;;;18.90;99.90;;;;;;5092714;28;20556;-69
2021/06/05 00:22:16;;;;;;;6.43;5.82;;;19.00;99.90;;;;;;5052615;28;20216;-70
2021/06/05 00:24:44;;;;;;;6.72;6.13;;;19.10;99.90;;;;;;5052597;28;20217;-69
2021/06/05 00:27:11;;;;;;;6.43;5.63;;;19.10;99.90;;;;;;5052710;28;20289;-69
2021/06/05 00:29:39;;;;;;;5.80;5.30;;;19.20;99.90;;;;;;5052355;28;20212;-70
2021/06/05 00:32:07;;;;;;;6.10;5.50;;;19.20;99.90;;;;;;5052595;28;20205;-69
2021/06/05 00:34:34;;;;;;;5.65;5.15;;;19.10;99.90;;;;;;5052960;28;20573;-69
2021/06/05 00:37:04;;;;;;;5.97;5.25;;;19.00;99.90;;;;;;5072155;28;20901;-68
2021/06/05 00:39:31;;;;;;;5.70;5.20;;;19.00;99.90;;;;;;5072337;28;20672;-70
2021/06/05 00:41:58;;;;;;;6.28;5.57;;;18.90;99.90;;;;;;5072503;28;20204;-68
2021/06/05 00:44:26;;;;;;;5.70;5.20;;;18.90;99.90;;;;;;5072465;28;20323;-69
2021/06/05 00:46:53;;;;;;;6.03;4.78;;;18.80;99.90;;;;;;5072487;28;20299;-69
2021/06/05 00:49:21;;;;;;;7.35;5.72;;;18.80;99.90;;;;;;5072269;28;20629;-69
2021/06/05 00:51:51;;;;;;;6.30;5.57;;;18.80;99.90;;;;;;5071938;28;20228;-69
2021/06/05 00:54:22;;;;;;;5.80;5.30;;;18.80;99.90;;;;;;5072504;28;20177;-69
2021/06/05 00:56:52;;;;;;;5.10;4.70;;;18.70;99.90;;;;;;5072224;28;20640;-69
2021/06/05 00:59:21;;;;;;;5.90;5.40;;;18.70;99.90;;;;;;5072325;28;20185;-70
2021/06/05 01:01:48;;;;;;;5.80;5.32;;;18.90;99.90;;;;;;5072390;28;20201;-69
2021/06/05 01:04:16;;;;;;;5.13;4.72;;;19.10;99.90;;;;;;5072225;28;20220;-69
2021/06/05 01:06:51;;;;;;;5.50;4.95;;;19.10;99.90;;;;;;5072072;28;20204;-70
2021/06/05 01:09:25;;;;;;;5.05;4.65;;;19.10;99.90;;;;;;5072035;28;20181;-69
2021/06/05 01:11:57;;;;;;;5.15;4.47;;;19.20;99.90;;;;;;5067588;28;20226;-70
2021/06/05 01:14:30;;;;;;;4.70;4.30;;;19.10;99.90;;;;;;5085460;28;20187;-70
2021/06/05 01:17:01;;;;;;;5.32;4.82;;;19.10;99.90;;;;;;5092550;28;20210;-70
2021/06/05 01:19:44;;;;;;;4.65;4.25;;;19.10;99.90;;;;;;5092164;28;20196;-70
2021/06/05 01:22:21;;;;;;;5.30;4.80;;;19.20;99.90;;;;;;5092011;28;20184;-70
2021/06/05 01:25:06;;;;;;;5.60;5.10;;;19.20;99.90;;;;;;5092272;28;20238;-69
2021/06/05 01:27:40;;;;;;;5.88;5.30;;;19.30;99.90;;;;;;5094579;28;20180;-70
2021/06/05 01:30:14;;;;;;;5.38;4.85;;;19.30;99.90;;;;;;5095965;28;20198;-69
2021/06/05 01:32:42;;;;;;;5.22;4.82;;;19.40;99.90;;;;;;5095778;28;20194;-70
2021/06/05 01:35:14;;;;;;;5.45;4.95;;;19.30;99.90;;;;;;5090179;28;20296;-70
2021/06/05 01:37:42;;;;;;;5.32;4.93;;;19.20;99.90;;;;;;5075517;28;20201;-70
2021/06/05 01:40:14;;;;;;;5.50;4.70;;;19.20;99.90;;;;;;5075340;28;20660;-70
2021/06/05 01:42:45;;;;;;;5.00;4.60;;;19.00;99.90;;;;;;5075621;28;20280;-70
2021/06/05 01:45:17;;;;;;;5.10;4.70;;;19.00;99.90;;;;;;5075162;28;20696;-68
2021/06/05 01:47:45;;;;;;;5.45;4.95;;;18.80;99.90;;;;;;5075108;28;20200;-70
2021/06/05 01:50:14;;;;;;;5.15;4.63;;;18.90;99.90;;;;;;5074991;28;20286;-70
2021/06/05 01:52:42;;;;;;;5.20;4.70;;;18.90;99.90;;;;;;5074730;28;20390;-70
2021/06/05 01:55:16;;;;;;;5.40;4.80;;;18.90;99.90;;;;;;5075263;28;20197;-69
2021/06/05 01:57:49;;;;;;;5.45;5.00;;;19.00;99.90;;;;;;5075250;28;20185;-69
2021/06/05 02:00:20;;;;;;;5.10;4.70;;;19.10;99.90;;;;;;5075269;28;20272;-69
2021/06/05 02:02:47;;;;;;;6.10;5.47;;;18.90;99.90;;;;;;5075012;28;20272;-69
2021/06/05 02:05:15;;;;;;;6.22;4.95;;;19.00;99.90;;;;;;5074850;28;20224;-70
2021/06/05 02:07:42;;;;;;;5.68;5.00;;;19.00;99.90;;;;;;5074597;28;20211;-70
2021/06/05 02:10:12;;;;;;;5.22;4.75;;;19.00;99.90;;;;;;5074894;28;20223;-69
2021/06/05 02:12:40;;;;;;;5.45;4.90;;;19.10;99.90;;;;;;5075002;28;20207;-69
2021/06/05 02:15:17;;;;;;;6.30;5.03;;;18.90;99.90;;;;;;5094144;28;20581;-68
2021/06/05 02:17:45;;;;;;;5.05;4.60;;;18.90;99.90;;;;;;5095186;28;20187;-70
2021/06/05 02:20:17;;;;;;;6.35;4.80;;;18.80;99.90;;;;;;5094635;28;20654;-69
2021/06/05 02:22:46;;;;;;;5.35;4.85;;;18.80;99.90;;;;;;5094884;28;20187;-70
2021/06/05 02:25:16;;;;;;;5.85;5.35;;;18.70;99.90;;;;;;5094828;28;20220;-69
2021/06/05 02:27:44;;;;;;;6.75;5.60;;;18.70;99.90;;;;;;5094957;28;20181;-69
2021/06/05 02:30:18;;;;;;;5.45;4.95;;;18.70;99.90;;;;;;5094884;28;20200;-68
2021/06/05 02:32:46;;;;;;;4.78;4.38;;;18.80;99.90;;;;;;5094561;28;20594;-70
2021/06/05 02:35:16;;;;;;;4.82;4.43;;;18.70;99.90;;;;;;5088500;28;20288;-70
2021/06/05 02:37:46;;;;;;;5.05;4.57;;;18.70;99.90;;;;;;5074040;28;20264;-69
2021/06/05 02:40:18;;;;;;;5.97;5.22;;;18.60;99.90;;;;;;5074191;28;20211;-69
2021/06/05 02:42:45;;;;;;;5.07;4.68;;;18.60;99.90;;;;;;5074495;28;20268;-69
2021/06/05 02:45:21;;;;;;;5.88;5.03;;;18.40;99.90;;;;;;5074171;28;20226;-70
2021/06/05 02:47:53;;;;;;;6.20;5.70;;;18.30;99.90;;;;;;5074067;28;20189;-69
2021/06/05 02:50:23;;;;;;;6.13;5.53;;;18.30;99.90;;;;;;5073989;28;20204;-70
2021/06/05 02:52:51;;;;;;;5.57;5.10;;;18.30;99.90;;;;;;5073811;28;20228;-69
2021/06/05 02:55:21;;;;;;;6.35;5.85;;;18.20;99.90;;;;;;5074263;28;20197;-70
2021/06/05 02:57:48;;;;;;;6.07;5.57;;;18.20;99.90;;;;;;5073811;28;20208;-69
2021/06/05 03:00:26;;;;;;;6.22;5.63;;;18.20;99.90;;;;;;5073947;28;20228;-69
2021/06/05 03:02:54;;;;;;;6.60;5.63;;;18.10;99.90;;;;;;5074096;28;20241;-69
2021/06/05 03:05:22;;;;;;;5.88;5.35;;;18.10;99.90;;;;;;5073628;28;20331;-69
2021/06/05 03:07:50;;;;;;;7.97;5.40;;;18.20;99.90;;;;;;5073739;28;20200;-69
2021/06/05 03:10:19;;;;;;;5.22;4.82;;;18.40;99.90;;;;;;5073909;28;20205;-69
2021/06/05 03:12:47;;;;;;;5.32;4.93;;;18.40;99.90;;;;;;5073813;28;20242;-69
2021/06/05 03:15:15;;;;;;;5.90;5.40;;;18.40;99.90;;;;;;5093991;28;20210;-70
2021/06/05 03:17:44;;;;;;;5.78;5.05;;;18.30;99.90;;;;;;5094079;28;20303;-68
2021/06/05 03:20:16;;;;;;;6.60;5.63;;;18.30;99.90;;;;;;5093515;28;20593;-69
2021/06/05 03:22:44;;;;;;;6.47;5.80;;;18.30;99.90;;;;;;5093923;28;20219;-69
2021/06/05 03:25:13;;;;;;;6.20;5.70;;;18.30;99.90;;;;;;5093811;28;20284;-70
2021/06/05 03:27:40;;;;;;;6.13;5.63;;;18.40;99.90;;;;;;5093538;28;20658;-69
2021/06/05 03:30:10;;;;;;;6.25;5.75;;;18.50;99.90;;;;;;5093813;28;20290;-69
2021/06/05 03:32:37;;;;;;;6.75;6.15;;;18.50;99.90;;;;;;5093745;28;20290;-69
2021/06/05 03:35:08;;;;;;;5.70;5.20;;;18.60;99.90;;;;;;5088622;28;20211;-69
2021/06/05 03:37:36;;;;;;;6.05;5.55;;;18.60;99.90;;;;;;5072948;28;20189;-69
2021/06/05 03:40:07;;;;;;;5.80;5.20;;;18.50;99.90;;;;;;5073060;28;20204;-69
2021/06/05 03:42:34;;;;;;;7.45;5.60;;;18.60;99.90;;;;;;5072753;28;20272;-70
2021/06/05 03:45:02;;;;;;;6.32;5.43;;;18.60;99.90;;;;;;5072562;28;20243;-70
2021/06/05 03:47:30;;;;;;;6.18;5.68;;;18.60;99.90;;;;;;5072826;28;20208;-70
2021/06/05 03:49:57;;;;;;;6.15;5.55;;;18.60;99.90;;;;;;5072126;28;20295;-68
2021/06/05 03:52:26;;;;;;;6.50;5.90;;;18.70;99.90;;;;;;5072641;28;20260;-71
2021/06/05 03:54:55;;;;;;;6.20;5.60;;;18.80;99.90;;;;;;5072782;28;20291;-69
2021/06/05 03:57:25;;;;;;;5.90;5.40;;;18.80;99.90;;;;;;5073069;28;20299;-69
2021/06/05 03:59:55;;;;;;;6.10;5.60;;;18.80;99.90;;;;;;5072815;28;20196;-70
2021/06/05 04:02:23;;;;;;;5.55;5.05;;;18.80;99.90;;;;;;5072760;28;20724;-70
2021/06/05 04:04:51;;;;;;;6.32;5.72;;;18.80;99.90;;;;;;5072655;28;20204;-69
2021/06/05 04:07:20;;;;;;;6.38;5.88;;;18.90;99.90;;;;;;5072610;28;20201;-68
2021/06/05 04:09:49;;;;;;;6.13;5.53;;;19.00;99.90;;;;;;5072888;28;20200;-69
2021/06/05 04:12:16;;;;;;;6.78;6.05;;;19.10;99.90;;;;;;5072623;28;20207;-70
2021/06/05 04:14:44;;;;;;;6.15;5.65;;;19.30;99.90;;;;;;5088796;28;20227;-69
2021/06/05 04:17:12;;;;;;;6.38;5.78;;;19.40;99.90;;;;;;5092978;28;20303;-69
2021/06/05 04:19:40;;;;;;;6.95;5.85;;;19.40;99.90;;;;;;5092905;28;20253;-70
2021/06/05 04:22:10;;;;;;;6.93;6.25;;;19.60;99.90;;;;;;5092636;28;20556;-69
2021/06/05 04:24:38;;;;;;;7.13;6.22;;;19.60;99.90;;;;;;5092876;28;20204;-69
2021/06/05 04:27:08;;;;;;;6.05;5.55;;;19.70;99.90;;;;;;5092785;28;20227;-69
2021/06/05 04:29:36;;;;;;;6.30;5.80;;;19.70;99.90;;;;;;5092920;28;20186;-69
2021/06/05 04:32:06;;;;;;;6.82;6.15;;;19.80;99.90;;;;;;5092821;28;20196;-69
2021/06/05 04:34:34;;;;;;;6.93;6.22;;;19.80;99.90;;;;;;5092153;28;20703;-69
2021/06/05 04:37:02;;;;;;;6.55;5.95;;;19.90;99.90;;;;;;5072479;28;20193;-69
2021/06/05 04:39:30;;;;;;;7.53;6.80;;;19.90;99.90;;;;;;5072666;28;20303;-70
2021/06/05 04:42:01;;;;;;;6.97;6.28;;;20.10;99.90;;;;;;5072428;28;20208;-69
2021/06/05 04:44:30;;;;;;;8.02;7.32;;;20.20;99.90;;;;;;5071524;28;20625;-69
2021/06/05 04:46:57;;;;;;;7.47;6.88;;;20.40;99.90;;;;;;5071754;28;20219;-69
2021/06/05 04:49:25;;;;;;;7.07;6.47;;;20.40;99.90;;;;;;5069043;28;20667;-69
2021/06/05 04:51:52;;;;;;;7.30;6.60;;;20.60;99.90;;;;;;5071982;28;20228;-69
2021/06/05 04:54:19;;;;;;;7.43;6.82;;;20.70;99.90;;;;;;5072151;28;20688;-68
2021/06/05 04:56:49;;;;;;;7.63;6.93;;;21.10;99.90;;;;;;5072161;28;20295;-70
2021/06/05 04:59:20;;;;;;;6.43;5.82;;;21.90;99.90;;;;;;5072263;28;20228;-69
2021/06/05 05:01:49;;;;;;;6.13;5.63;;;23.20;99.90;;;;;;5072886;28;20556;-69
2021/06/05 05:04:17;;;;;;;5.40;4.90;;;24.90;99.90;;;;;;5075983;28;20292;-69
2021/06/05 05:06:44;;;;;;;7.38;5.10;;;26.60;99.90;;;;;;5075823;28;20217;-69
2021/06/05 05:09:14;;;;;;;4.57;4.10;;;28.60;99.90;;;;;;5075449;28;20204;-69
2021/06/05 05:11:42;;;;;;;5.93;4.40;;;30.10;99.90;;;;;;5075788;28;20650;-69
2021/06/05 05:17:36;;;;;;;4.00;3.70;;;30.80;99.90;;;;;;5056464;28;20326;-69
2021/06/05 05:20:06;;;;;;;5.40;4.90;;;31.10;99.90;;;;;;5096099;28;20204;-71
2021/06/05 05:22:34;;;;;;;5.30;4.80;;;31.50;99.90;;;;;;5096166;28;20271;-68
2021/06/05 05:25:02;;;;;;;4.28;3.97;;;31.20;99.90;;;;;;5096039;28;20200;-70
2021/06/05 05:27:30;;;;;;;4.50;4.10;;;30.10;99.90;;;;;;5095862;28;20299;-69
2021/06/05 05:29:57;;;;;;;4.75;4.32;;;28.90;99.90;;;;;;5095933;28;20200;-69
2021/06/05 05:32:25;;;;;;;5.72;5.20;;;27.90;99.90;;;;;;5095886;28;20299;-71
2021/06/05 05:34:53;;;;;;;6.05;5.55;;;27.20;99.90;;;;;;5075783;28;20242;-70
2021/06/05 05:37:21;;;;;;;5.07;4.68;;;;;;;;;;5074900;28;20189;-69
2021/06/05 05:39:48;;;;;;;5.95;5.45;;;25.20;99.90;;;;;;5075544;28;20201;-69
2021/06/05 05:42:16;;;;;;;5.70;5.20;;;25.00;99.90;;;;;;5075387;28;20295;-69
2021/06/05 05:44:43;;;;;;;5.35;4.85;;;24.60;99.90;;;;;;5074999;28;20189;-70
2021/06/05 05:47:10;;;;;;;5.07;4.38;;;24.00;99.90;;;;;;5074902;28;20216;-70
2021/06/05 05:49:38;;;;;;;5.68;5.15;;;24.00;99.90;;;;;;5071968;28;20684;-70
2021/06/05 05:52:07;;;;;;;5.35;4.85;;;24.10;99.90;;;;;;5074818;28;20642;-70
2021/06/05 05:54:34;;;;;;;5.82;5.22;;;24.00;99.90;;;;;;5075043;28;20674;-71
2021/06/05 05:57:02;;;;;;;5.35;4.95;;;23.80;99.90;;;;;;5075236;28;20212;-69
2021/06/05 05:59:29;;;;;;;5.10;4.63;;;23.70;99.90;;;;;;5075147;28;20200;-70
2021/06/05 06:01:56;;;;;;;5.25;4.65;;;23.60;99.90;;;;;;5075201;28;20207;-69
2021/06/05 06:04:24;;;;;;;5.70;4.90;;;23.50;99.90;;;;;;5075166;28;20291;-70
2021/06/05 06:06:51;;;;;;;5.70;5.18;;;23.40;99.90;;;;;;5074519;28;20225;-70
2021/06/05 06:09:20;;;;;;;5.05;4.65;;;23.40;99.90;;;;;;5074792;28;20207;-70
2021/06/05 06:11:47;;;;;;;4.55;4.10;;;23.20;99.90;;;;;;5074925;28;20533;-70
2021/06/05 06:14:16;;;;;;;5.00;4.50;;;23.10;99.90;;;;;;5085834;28;20207;-69
2021/06/05 06:16:44;;;;;;;5.40;4.88;;;23.00;99.90;;;;;;5095162;28;20196;-69
2021/06/05 06:19:13;;;;;;;3.85;3.55;;;23.10;99.90;;;;;;5095093;28;20199;-72
2021/06/05 06:21:41;;;;;;;4.93;4.53;;;23.10;99.90;;;;;;5094633;28;20602;-72
2021/06/05 06:24:08;;;;;;;5.18;4.68;;;23.10;99.90;;;;;;5094978;28;20299;-70
2021/06/05 06:26:39;;;;;;;5.28;4.85;;;23.00;99.90;;;;;;5094638;28;20226;-71
2021/06/05 06:29:13;;;;;;;4.85;4.45;;;23.10;99.90;;;;;;5095002;28;20184;-70
2021/06/05 06:31:43;;;;;;;5.80;4.97;;;23.10;99.90;;;;;;5094919;28;20188;-69
2021/06/05 06:34:11;;;;;;;4.88;4.40;;;23.20;99.90;;;;;;5094882;28;20207;-69
2021/06/05 06:36:39;;;;;;;4.45;4.07;;;23.30;99.90;;;;;;5076810;28;20197;-70
2021/06/05 06:39:07;;;;;;;4.82;4.32;;;23.50;99.90;;;;;;5074150;28;20291;-70
2021/06/05 06:41:34;;;;;;;5.15;4.40;;;23.80;99.90;;;;;;5074026;28;20200;-70
2021/06/05 06:44:05;;;;;;;4.60;4.20;;;24.20;99.90;;;;;;5073788;28;20679;-69
2021/06/05 06:46:36;;;;;;;5.03;4.53;;;24.50;99.90;;;;;;5074228;28;20641;-70
2021/06/05 06:49:04;;;;;;;4.18;3.88;;;24.70;99.90;;;;;;5074166;28;20189;-69
2021/06/05 06:51:34;;;;;;;5.00;4.00;;;24.80;99.90;;;;;;5073512;28;20239;-69
2021/06/05 06:54:02;;;;;;;3.90;3.60;;;25.00;99.90;;;;;;5073726;28;20591;-71
2021/06/05 06:56:29;;;;;;;3.92;3.63;;;24.90;99.90;;;;;;5073302;28;20193;-70
2021/06/05 06:58:57;;;;;;;4.07;3.45;;;24.90;99.90;;;;;;5073634;28;20199;-70
2021/06/05 07:01:26;;;;;;;3.90;3.60;;;25.00;99.90;;;;;;5073322;28;20656;-71
2021/06/05 07:03:54;;;;;;;3.13;2.92;;;25.10;99.90;;;;;;5073047;28;20197;-69
2021/06/05 07:06:25;;;;;;;3.17;2.97;;;24.80;99.90;;;;;;5073609;28;20240;-71
2021/06/05 07:08:53;;;;;;;3.80;3.45;;;24.80;99.90;;;;;;5073555;28;20181;-69
2021/06/05 07:11:24;;;;;;;3.85;3.55;;;24.60;99.90;;;;;;5073311;28;20206;-70
2021/06/05 07:13:51;;;;;;;3.85;3.50;;;24.50;99.90;;;;;;5082619;28;20196;-70
2021/06/05 07:16:19;;;;;;;3.97;3.40;;;24.40;99.90;;;;;;5093908;28;20198;-69
2021/06/05 07:18:48;;;;;;;3.70;3.35;;;24.60;99.90;;;;;;5093852;28;20296;-69
2021/06/05 07:21:16;;;;;;;3.72;3.42;;;24.80;99.90;;;;;;5093601;28;20196;-69
2021/06/05 07:23:44;;;;;;;3.30;3.00;;;24.80;99.90;;;;;;5093340;28;20204;-70
2021/06/05 07:26:15;;;;;;;4.28;3.40;;;24.90;99.90;;;;;;5093497;28;20590;-70
2021/06/05 07:28:45;;;;;;;3.80;3.50;;;25.00;99.90;;;;;;5093821;28;20191;-70
2021/06/05 07:31:16;;;;;;;3.63;3.40;;;25.40;99.90;;;;;;5093536;28;20188;-70
2021/06/05 07:33:44;;;;;;;4.40;3.53;;;25.60;99.90;;;;;;5093747;28;20180;-69
2021/06/05 07:36:30;;;;;;;3.55;3.25;;;25.80;99.90;;;;;;5079393;28;20296;-71
2021/06/05 07:38:57;;;;;;;4.63;4.20;;;26.20;99.90;;;;;;5073125;28;20619;-71
2021/06/05 07:41:25;;;;;;;5.00;4.18;;;26.40;99.90;;;;;;5073049;28;20662;-69
2021/06/05 07:43:53;;;;;;;4.30;3.97;;;26.60;99.90;;;;;;5073215;28;20200;-70
2021/06/05 07:46:20;;;;;;;3.88;3.58;;;26.40;99.90;;;;;;5073053;28;20227;-69
2021/06/05 07:48:48;;;;;;;5.47;4.00;;;26.50;99.90;;;;;;5073095;28;20208;-68
2021/06/05 07:51:18;;;;;;;4.20;3.90;;;26.60;99.90;;;;;;5072678;28;20225;-71
2021/06/05 07:53:47;;;;;;;4.72;4.32;;;26.60;99.90;;;;;;5072999;28;20280;-69
2021/06/05 07:56:14;;;;;;;4.38;3.97;;;26.40;99.90;;;;;;5072684;28;20295;-69
2021/06/05 07:58:42;;;;;;;3.80;3.50;;;26.40;99.90;;;;;;5058060;28;20211;-70
2021/06/05 08:01:09;;;;;;;4.20;3.90;;;26.60;99.90;;;;;;5052858;28;20197;-70
2021/06/05 08:03:37;;;;;;;4.82;4.03;;;26.70;99.90;;;;;;5052594;28;20206;-69
2021/06/05 08:06:08;;;;;;;4.70;4.30;;;26.90;99.90;;;;;;5065720;28;20204;-75
2021/06/05 08:08:37;;;;;;;4.43;4.03;;;27.30;99.90;;;;;;5072512;28;20220;-67
2021/06/05 08:11:06;;;;;;;5.25;4.32;;;27.50;99.90;;;;;;5072991;28;20216;-67
2021/06/05 08:13:33;;;;;;;4.28;3.97;;;27.60;99.90;;;;;;5081416;28;20196;-67
2021/06/05 08:16:01;;;;;;;4.85;4.45;;;27.60;99.90;;;;;;5072624;28;20211;-68
2021/06/05 08:18:29;;;;;;;4.10;3.70;;;27.70;99.90;;;;;;5072591;28;20208;-66
2021/06/05 08:20:59;;;;;;;3.95;3.65;;;27.70;99.90;;;;;;5072526;28;20197;-67
2021/06/05 08:23:29;;;;;;;3.85;3.55;;;27.60;99.90;;;;;;5072272;28;20538;-68
2021/06/05 08:25:59;;;;;;;4.90;4.40;;;27.50;99.90;;;;;;5072275;28;20191;-66
2021/06/05 08:28:28;;;;;;;5.15;4.75;;;27.50;99.90;;;;;;5072343;28;20227;-75
2021/06/05 08:30:58;;;;;;;5.57;4.75;;;27.30;99.90;;;;;;5072426;28;20201;-70
2021/06/05 08:33:26;;;;;;;5.82;4.60;;;26.90;99.90;;;;;;5072307;28;20195;-70
2021/06/05 08:35:53;;;;;;;4.50;4.10;;;26.70;99.90;;;;;;5072265;28;20201;-72
2021/06/05 08:38:23;;;;;;;5.28;4.72;;;26.60;99.90;;;;;;5076240;28;20198;-70
2021/06/05 08:41:03;;;;;;;4.20;3.90;;;26.60;99.90;;;;;;5076760;28;20185;-69
2021/06/05 08:43:35;;;;;;;5.25;4.75;;;26.70;99.90;;;;;;5076357;28;20188;-68
2021/06/05 08:46:04;;;;;;;5.97;5.10;;;26.60;99.90;;;;;;5076422;28;20273;-66
2021/06/05 08:48:32;;;;;;;4.25;3.85;;;26.80;99.90;;;;;;5076377;28;20357;-66
2021/06/05 08:51:20;;;;;;;4.20;3.80;;;26.80;99.90;;;;;;5075590;28;20675;-64
2021/06/05 08:53:48;;;;;;;4.15;3.75;;;26.90;99.90;;;;;;5076148;28;20188;-61
2021/06/05 08:56:21;;;;;;;4.22;3.75;;;27.10;99.90;;;;;;5076264;28;20204;-62
2021/06/05 08:58:55;;;;;;;4.57;4.18;;;27.30;99.90;;;;;;5076141;28;20266;-70
2021/06/05 09:01:28;;;;;;;5.75;5.30;;;27.30;99.90;;;;;;5076254;28;20195;-69
2021/06/05 09:04:00;;;;;;;5.72;4.90;;;27.50;99.90;;;;;;5076040;28;20552;-68
2021/06/05 09:06:34;;;;;;;4.55;4.25;;;27.30;99.90;;;;;;5075764;28;20207;-68
2021/06/05 09:09:04;;;;;;;5.30;4.50;;;27.30;99.90;;;;;;5076074;28;20245;-68
2021/06/05 09:11:33;;;;;;;5.95;4.80;;;27.30;99.90;;;;;;5075880;28;20211;-69
2021/06/05 09:14:01;;;;;;;5.75;4.18;;;27.10;99.90;;;;;;5086144;28;20208;-68
2021/06/05 09:16:46;;;;;;;4.15;3.85;;;27.30;99.90;;;;;;5096138;28;20212;-68
2021/06/05 09:19:21;;;;;;;4.43;4.03;;;27.20;99.90;;;;;;5096028;28;20195;-69
2021/06/05 09:21:52;;;;;;;5.47;4.15;;;27.00;99.90;;;;;;5111174;28;20912;-67
2021/06/05 09:24:28;;;;;;;4.80;4.50;;;26.90;99.90;;;;;;5095978;28;20181;-68
2021/06/05 09:27:10;;;;;;;5.05;4.55;;;27.00;99.90;;;;;;5095765;28;20212;-69
2021/06/05 09:29:53;;;;;;;4.80;4.30;;;26.90;99.90;;;;;;5095665;28;20184;-63
2021/06/05 09:32:23;;;;;;;4.68;4.28;;;27.10;99.90;;;;;;5095762;28;20275;-62
2021/06/05 09:34:53;;;;;;;6.10;4.43;;;27.30;99.90;;;;;;5092616;28;20237;-62
2021/06/05 09:37:36;;;;;;;4.25;3.95;;;27.50;99.90;;;;;;5074820;28;20570;-62
2021/06/05 09:40:22;;;;;;;4.05;3.75;;;27.60;99.90;;;;;;5075244;28;20273;-61
2021/06/05 09:42:54;;;;;;;5.70;5.20;;;27.90;99.90;;;;;;5078312;28;20193;-65
2021/06/05 09:45:30;;;;;;;5.60;5.00;;;28.20;99.90;;;;;;5084387;28;20184;-62
2021/06/05 09:48:14;;;;;;;5.20;4.80;;;28.30;99.90;;;;;;5095147;28;20231;-71
2021/06/05 09:50:43;;;;;;;5.70;5.10;;;28.40;99.90;;;;;;5077257;28;20189;-67
2021/06/05 09:53:12;;;;;;;5.10;4.60;;;28.30;99.90;;;;;;5074643;28;20224;-68
2021/06/05 09:55:41;;;;;;;5.47;4.97;;;28.40;99.90;;;;;;5075057;28;20292;-69
2021/06/05 09:58:11;;;;;;;5.65;5.15;;;28.40;99.90;;;;;;5083776;28;20188;-61
2021/06/05 10:00:40;;;;;;;5.43;4.75;;;28.20;99.90;;;;;;5095045;28;20646;-62
2021/06/05 10:03:28;;;;;;;5.00;4.60;;;28.20;99.90;;;;;;5095284;28;20199;-71
2021/06/05 10:05:56;;;;;;;6.38;5.07;;;28.60;99.90;;;;;;5083218;28;20232;-64
2021/06/05 10:08:34;;;;;;;5.72;5.20;;;28.70;99.90;;;;;;5074413;28;20771;-65
2021/06/05 10:11:08;;;;;;;5.15;4.65;;;28.90;99.90;;;;;;5074886;28;20276;-70
2021/06/05 10:13:41;;;;;;;5.40;5.00;;;28.80;99.90;;;;;;5081639;28;20274;-69
2021/06/05 10:16:12;;;;;;;6.97;5.55;;;28.90;99.90;;;;;;5078236;28;20192;-68
2021/06/05 10:18:44;;;;;;;5.82;4.30;;;28.80;99.90;;;;;;5074814;28;20219;-69
2021/06/05 10:21:17;;;;;;;5.95;5.53;;;28.80;99.90;;;;;;5074454;28;20181;-70
2021/06/05 10:23:49;;;;;;;5.78;5.18;;;28.90;99.90;;;;;;5094763;28;20196;-69
2021/06/05 10:26:23;;;;;;;4.80;4.40;;;29.20;99.90;;;;;;5094829;28;20274;-69
2021/06/05 10:28:56;;;;;;;5.80;5.30;;;29.40;99.90;;;;;;5094393;28;20790;-68
2021/06/05 10:31:25;;;;;;;5.22;4.75;;;29.30;99.90;;;;;;5094706;28;20219;-67
2021/06/05 10:33:57;;;;;;;5.47;5.05;;;29.40;99.90;;;;;;5094558;28;20210;-72
2021/06/05 10:36:28;;;;;;;5.90;5.38;;;29.30;99.90;;;;;;5078417;28;20295;-68
2021/06/05 10:39:00;;;;;;;5.57;5.13;;;29.40;99.90;;;;;;5074190;28;20234;-68
2021/06/05 10:41:29;;;;;;;5.35;4.88;;;29.30;99.90;;;;;;5074205;28;20189;-68
2021/06/05 10:43:58;;;;;;;5.63;5.20;;;29.00;99.90;;;;;;5074207;28;20201;-68
2021/06/05 10:46:43;;;;;;;6.07;5.47;;;28.80;99.90;;;;;;5074064;28;20208;-68
2021/06/05 10:49:20;;;;;;;6.20;5.60;;;28.50;99.90;;;;;;5073865;28;20578;-68
2021/06/05 10:51:55;;;;;;;5.63;5.22;;;28.20;99.90;;;;;;5073447;28;20232;-68
2021/06/05 10:54:25;;;;;;;5.18;4.78;;;27.90;99.90;;;;;;5074130;28;20187;-68
2021/06/05 10:57:01;;;;;;;7.50;5.30;;;27.70;99.90;;;;;;5073893;28;20205;-69
2021/06/05 10:59:49;;;;;;;5.85;5.28;;;27.50;99.90;;;;;;5073194;28;20188;-69
2021/06/05 11:02:43;;;;;;;5.32;4.82;;;27.10;99.90;;;;;;5073859;28;20259;-68
2021/06/05 11:05:41;;;;;;;5.60;5.20;;;26.70;99.90;;;;;;5073496;28;20555;-68
2021/06/05 11:08:32;;;;;;;5.70;5.30;;;26.50;99.90;;;;;;5073651;28;20308;-70
2021/06/05 11:11:34;;;;;;;5.70;5.20;;;26.30;99.90;;;;;;5060577;28;20563;-70
2021/06/05 11:14:04;;;;;;;6.35;5.32;;;26.30;99.90;;;;;;5083844;28;20218;-70
2021/06/05 11:17:09;;;;;;;6.28;5.78;;;26.20;99.90;;;;;;5093992;28;20226;-70
2021/06/05 11:19:40;;;;;;;5.90;5.40;;;26.20;99.90;;;;;;5093599;28;20184;-70
2021/06/05 11:22:10;;;;;;;5.50;5.10;;;26.30;99.90;;;;;;5093506;28;20191;-72
2021/06/05 11:24:38;;;;;;;6.97;5.40;;;26.40;99.90;;;;;;5093332;28;20306;-69
2021/06/05 11:27:11;;;;;;;5.22;4.80;;;26.60;99.90;;;;;;5093621;28;20192;-68
2021/06/05 11:29:58;;;;;;;5.40;5.00;;;26.70;99.90;;;;;;5093272;28;20707;-68
2021/06/05 11:32:54;;;;;;;5.18;4.78;;;26.60;99.90;;;;;;5093730;28;20194;-70
2021/06/05 11:35:48;;;;;;;5.53;5.03;;;26.80;99.90;;;;;;5086644;28;20207;-70
2021/06/05 11:38:46;;;;;;;5.38;4.97;;;27.00;99.90;;;;;;5073514;28;20209;-69
2021/06/05 11:41:42;;;;;;;5.47;5.00;;;27.10;99.90;;;;;;5064170;28;20205;-70
2021/06/05 11:44:28;;;;;;;5.60;5.10;;;27.50;99.90;;;;;;5072942;28;20283;-70
2021/06/05 11:46:58;;;;;;;6.72;5.60;;;28.00;99.90;;;;;;5073126;28;20195;-70
2021/06/05 11:49:50;;;;;;;5.43;5.03;;;28.00;99.90;;;;;;5073019;28;20205;-69
2021/06/05 11:52:50;;;;;;;5.57;5.10;;;28.10;99.90;;;;;;5072438;28;20783;-70
2021/06/05 11:55:28;;;;;;;5.30;4.90;;;28.20;99.90;;;;;;5072660;28;20195;-70
2021/06/05 11:58:09;;;;;;;7.28;6.13;;;28.20;99.90;;;;;;5072844;28;20177;-69
2021/06/05 12:00:39;;;;;;;7.00;6.40;;;28.30;99.90;;;;;;5072994;28;20189;-78
2021/06/05 12:03:09;;;;;;;6.90;6.40;;;28.10;99.90;;;;;;5058727;28;20202;-78
2021/06/05 12:05:39;;;;;;;7.40;6.80;;;27.80;99.90;;;;;;5061760;28;20208;-75
2021/06/05 12:08:25;;;;;;;6.53;6.05;;;27.60;99.90;;;;;;5072401;28;20227;-75
2021/06/05 12:10:54;;;;;;;6.90;6.28;;;27.20;99.90;;;;;;5071908;28;20532;-74
2021/06/05 12:13:29;;;;;;;6.55;6.05;;;26.70;99.90;;;;;;5077231;28;20221;-69
2021/06/05 12:16:07;;;;;;;7.05;6.28;;;26.50;99.90;;;;;;5093102;28;20184;-71
2021/06/05 12:18:35;;;;;;;6.80;6.30;;;26.40;99.90;;;;;;5092987;28;20176;-69
2021/06/05 12:21:20;;;;;;;6.63;6.13;;;26.40;99.90;;;;;;5093600;28;20196;-70
2021/06/05 12:23:51;;;;;;;7.30;6.70;;;26.40;99.90;;;;;;5094159;28;20296;-71
2021/06/05 12:26:21;;;;;;;7.22;6.70;;;26.30;99.90;;;;;;5096248;28;20196;-70
2021/06/05 12:28:50;;;;;;;7.00;6.40;;;26.20;99.90;;;;;;5096127;28;20224;-70
2021/06/05 12:31:20;;;;;;;5.90;5.50;;;26.20;99.90;;;;;;5095025;28;20203;-70
2021/06/05 12:33:56;;;;;;;6.60;6.10;;;26.30;99.90;;;;;;5095395;28;20237;-70
2021/06/05 12:36:28;;;;;;;6.75;6.15;;;26.60;99.90;;;;;;5078847;28;20307;-70
2021/06/05 12:38:58;;;;;;;6.60;6.00;;;26.80;99.90;;;;;;5074874;28;20277;-71
2021/06/05 12:41:27;;;;;;;7.10;6.60;;;26.90;99.90;;;;;;5073098;28;20208;-71
2021/06/05 12:43:56;;;;;;;8.10;6.72;;;27.00;99.90;;;;;;5071955;28;20672;-70
2021/06/05 12:46:35;;;;;;;7.70;7.10;;;27.20;99.90;;;;;;5071904;28;20303;-71
2021/06/05 12:49:06;;;;;;;7.22;6.28;;;27.20;99.90;;;;;;5072510;28;20207;-70
2021/06/05 12:51:46;;;;;;;6.25;5.85;;;27.30;99.90;;;;;;5072174;28;20256;-69
2021/06/05 12:54:26;;;;;;;7.05;6.55;;;27.40;99.90;;;;;;5072154;28;20193;-71
2021/06/05 12:56:54;;;;;;;8.07;7.28;;;27.50;99.90;;;;;;5072090;28;20543;-71
2021/06/05 12:59:31;;;;;;;7.28;6.78;;;27.30;99.90;;;;;;5072048;28;20695;-70
2021/06/05 13:02:18;;;;;;;7.65;7.05;;;27.30;99.90;;;;;;5072131;28;20207;-71
2021/06/05 13:04:45;;;;;;;8.60;7.90;;;27.30;99.90;;;;;;5071810;28;20598;-67
2021/06/05 13:07:14;;;;;;;7.72;7.15;;;27.10;99.90;;;;;;5071787;28;20204;-67
2021/06/05 13:09:43;;;;;;;7.80;7.20;;;26.90;99.90;;;;;;5071466;28;20704;-66
2021/06/05 13:12:27;;;;;;;7.38;6.78;;;26.90;99.90;;;;;;5072005;28;20207;-64
2021/06/05 13:15:08;;;;;;;8.18;7.38;;;27.00;99.90;;;;;;5089697;28;20188;-67